Time;durP1;ratioP1;P1;durP2;ratioP2;P2;SDS_P1;SDS_P2;PMS_P1;PMS_P2;Temp;Humidity;BMP_temperature;BMP_pressure;BME280_temperature;BME280_humidity;BME280_pressure;Samples;Min_cycle;Max_cycle;Signal;HPM_P1;HPM_P2
2021/01/26 00:01:06;;;;;;;7.20;5.22;;;1.00;99.90;;;;;;1892271;76;21076;-73
2021/01/26 00:03:32;;;;;;;8.58;5.72;;;1.10;99.90;;;;;;1892415;76;21046;-73
2021/01/26 00:05:58;;;;;;;11.85;6.08;;;1.00;99.90;;;;;;1892306;76;21162;-73
2021/01/26 00:08:25;;;;;;;8.08;5.85;;;1.10;99.90;;;;;;1892362;76;21077;-74
2021/01/26 00:10:51;;;;;;;6.42;5.03;;;1.10;99.90;;;;;;1892466;76;21073;-74
2021/01/26 00:13:17;;;;;;;9.58;6.17;;;1.20;99.90;;;;;;1892422;76;21077;-75
2021/01/26 00:15:43;;;;;;;9.75;5.75;;;1.10;99.90;;;;;;1892433;76;21139;-75
2021/01/26 00:18:09;;;;;;;9.33;6.17;;;1.10;99.90;;;;;;1892290;76;21480;-75
2021/01/26 00:20:35;;;;;;;8.10;4.83;;;1.10;99.90;;;;;;1892360;76;21499;-74
2021/01/26 00:23:01;;;;;;;10.48;6.78;;;1.00;99.90;;;;;;1892545;76;21070;-75
2021/01/26 00:25:27;;;;;;;9.23;5.95;;;1.00;99.90;;;;;;1892423;76;21108;-74
2021/01/26 00:27:54;;;;;;;8.15;5.75;;;0.90;99.90;;;;;;1892416;76;21116;-75
2021/01/26 00:30:20;;;;;;;6.70;5.33;;;0.80;99.90;;;;;;1892420;76;21076;-75
2021/01/26 00:32:46;;;;;;;7.53;5.53;;;0.80;99.90;;;;;;1892447;76;21076;-75
2021/01/26 00:35:12;;;;;;;10.05;5.87;;;0.80;99.90;;;;;;1892657;76;21157;-73
2021/01/26 00:37:38;;;;;;;14.45;6.25;;;0.70;99.90;;;;;;1892624;76;21151;-72
2021/01/26 00:40:04;;;;;;;11.97;5.17;;;0.70;99.90;;;;;;1892594;76;21046;-72
2021/01/26 00:42:30;;;;;;;8.70;5.65;;;0.60;99.90;;;;;;1892488;76;21133;-73
2021/01/26 00:44:56;;;;;;;8.60;5.90;;;0.60;99.90;;;;;;1892599;76;21069;-75
2021/01/26 00:47:23;;;;;;;10.65;5.83;;;0.60;99.90;;;;;;1892459;76;21081;-75
2021/01/26 00:49:49;;;;;;;7.58;5.03;;;0.50;99.90;;;;;;1892501;76;21546;-74
2021/01/26 00:52:15;;;;;;;9.40;6.22;;;0.50;99.90;;;;;;1892562;76;21433;-75
2021/01/26 00:54:41;;;;;;;8.00;5.58;;;0.50;99.90;;;;;;1892580;76;21502;-73
2021/01/26 00:57:07;;;;;;;8.65;5.58;;;0.50;99.90;;;;;;1892599;76;21119;-75
2021/01/26 00:59:33;;;;;;;9.85;6.12;;;0.50;99.90;;;;;;1892418;76;21077;-74
2021/01/26 01:01:59;;;;;;;10.60;5.80;;;0.50;99.90;;;;;;1892417;76;21167;-75
2021/01/26 01:04:26;;;;;;;9.73;5.50;;;0.50;99.90;;;;;;1892766;76;21069;-75
2021/01/26 01:06:52;;;;;;;5.72;4.80;;;0.50;99.90;;;;;;1892406;76;21155;-75
2021/01/26 01:09:18;;;;;;;5.05;4.55;;;0.50;99.90;;;;;;1892586;76;21586;-75
2021/01/26 01:11:44;;;;;;;10.23;5.35;;;0.50;99.90;;;;;;1892493;76;21430;-74
2021/01/26 01:14:10;;;;;;;12.40;5.80;;;0.50;99.90;;;;;;1892641;76;21517;-75
2021/01/26 01:16:37;;;;;;;8.65;5.72;;;0.40;99.90;;;;;;1892410;76;21046;-74
2021/01/26 01:19:03;;;;;;;7.28;5.10;;;0.40;99.90;;;;;;1898194;75;21092;-74
2021/01/26 01:21:29;;;;;;;10.90;6.15;;;0.40;99.90;;;;;;1900668;75;21077;-75
2021/01/26 01:23:55;;;;;;;9.28;5.47;;;0.40;99.90;;;;;;1888994;76;21085;-75
2021/01/26 01:26:21;;;;;;;8.15;5.47;;;0.30;99.90;;;;;;1892424;76;21077;-75
2021/01/26 01:28:47;;;;;;;8.48;5.47;;;0.30;99.90;;;;;;1892438;76;21069;-73
2021/01/26 01:31:13;;;;;;;11.75;6.10;;;0.20;99.90;;;;;;1892526;76;21038;-74
2021/01/26 01:33:39;;;;;;;9.48;5.28;;;0.30;99.90;;;;;;1892496;76;21053;-74
2021/01/26 01:36:06;;;;;;;9.60;6.30;;;0.40;99.90;;;;;;1895635;75;21150;-75
2021/01/26 01:38:32;;;;;;;9.58;5.33;;;0.30;99.90;;;;;;1892486;76;21069;-74
2021/01/26 01:40:58;;;;;;;8.23;5.37;;;0.50;99.90;;;;;;1895494;74;21166;-75
2021/01/26 01:43:24;;;;;;;7.40;5.80;;;0.50;99.90;;;;;;1892471;76;21139;-75
2021/01/26 01:45:50;;;;;;;9.20;6.28;;;0.60;99.90;;;;;;1891135;76;21541;-75
2021/01/26 01:48:18;;;;;;;8.60;5.72;;;0.60;99.90;;;;;;1892452;75;21093;-75
2021/01/26 01:50:44;;;;;;;11.95;5.85;;;0.60;99.90;;;;;;1892308;76;21113;-74
2021/01/26 01:53:10;;;;;;;10.28;5.60;;;0.50;99.90;;;;;;1892483;76;21085;-72
2021/01/26 01:55:36;;;;;;;8.58;5.95;;;0.40;99.90;;;;;;1892365;76;21093;-75
2021/01/26 01:58:02;;;;;;;8.55;6.00;;;0.50;99.90;;;;;;1892403;76;21461;-75
2021/01/26 02:00:28;;;;;;;9.08;5.37;;;0.50;99.90;;;;;;1892424;76;21501;-75
2021/01/26 02:02:55;;;;;;;8.35;5.47;;;0.40;99.90;;;;;;1892503;76;21528;-75
2021/01/26 02:05:21;;;;;;;5.95;4.83;;;0.50;99.90;;;;;;1892460;76;21107;-75
2021/01/26 02:07:47;;;;;;;10.50;5.05;;;0.60;99.90;;;;;;1892337;76;21089;-75
2021/01/26 02:10:13;;;;;;;6.15;3.70;;;0.50;99.90;;;;;;1892400;76;21147;-75
2021/01/26 02:12:39;;;;;;;4.67;3.42;;;0.50;99.90;;;;;;1892520;76;21162;-75
2021/01/26 02:15:05;;;;;;;4.72;3.45;;;0.60;99.90;;;;;;1892481;76;21085;-75
2021/01/26 02:17:31;;;;;;;4.75;3.92;;;0.70;99.90;;;;;;1892528;76;21085;-75
2021/01/26 02:19:57;;;;;;;5.37;3.67;;;0.80;99.90;;;;;;1892462;76;21089;-75
2021/01/26 02:22:23;;;;;;;4.47;3.58;;;0.70;99.90;;;;;;1892528;76;21046;-75
2021/01/26 02:24:50;;;;;;;6.83;4.12;;;0.70;99.90;;;;;;1892549;76;21171;-72
2021/01/26 02:27:16;;;;;;;5.45;3.90;;;0.80;99.90;;;;;;1892373;76;21084;-74
2021/01/26 02:29:42;;;;;;;10.53;4.25;;;0.80;99.90;;;;;;1892372;76;21104;-73
2021/01/26 02:32:08;;;;;;;5.08;3.80;;;0.70;99.90;;;;;;1892500;76;21505;-73
2021/01/26 02:34:34;;;;;;;10.93;4.15;;;0.70;99.90;;;;;;1892829;76;21096;-73
2021/01/26 02:37:00;;;;;;;6.03;3.83;;;0.70;99.90;;;;;;1893117;76;21088;-74
2021/01/26 02:39:26;;;;;;;7.55;4.12;;;0.60;99.90;;;;;;1892899;76;21155;-74
2021/01/26 02:41:53;;;;;;;5.08;3.45;;;0.50;99.90;;;;;;1892975;76;21168;-73
2021/01/26 02:44:19;;;;;;;4.92;3.65;;;0.50;99.90;;;;;;1892943;76;21050;-73
2021/01/26 02:46:45;;;;;;;6.20;3.52;;;0.40;99.90;;;;;;1892933;76;21089;-74
2021/01/26 02:49:11;;;;;;;6.83;4.45;;;0.40;99.90;;;;;;1893088;76;21085;-73
2021/01/26 02:51:37;;;;;;;4.83;3.10;;;0.30;99.90;;;;;;1892868;76;21092;-74
2021/01/26 02:54:03;;;;;;;7.62;3.95;;;0.20;99.90;;;;;;1893087;76;21159;-74
2021/01/26 02:56:29;;;;;;;6.35;3.20;;;0.30;99.90;;;;;;1892902;76;21512;-74
2021/01/26 02:58:55;;;;;;;4.53;3.27;;;0.30;99.90;;;;;;1893001;76;21469;-74
2021/01/26 03:01:21;;;;;;;8.75;4.62;;;0.40;99.90;;;;;;1892866;76;21517;-73
2021/01/26 03:03:48;;;;;;;4.80;3.22;;;0.40;99.90;;;;;;1893066;76;21505;-74
2021/01/26 03:06:14;;;;;;;4.83;3.62;;;0.30;99.90;;;;;;1892816;76;21556;-75
2021/01/26 03:08:40;;;;;;;6.87;3.98;;;0.20;99.90;;;;;;1892871;76;21018;-75
2021/01/26 03:11:06;;;;;;;6.75;3.98;;;0.20;99.90;;;;;;1893074;76;21147;-73
2021/01/26 03:13:32;;;;;;;6.80;4.33;;;0.20;99.90;;;;;;1892977;76;21085;-74
2021/01/26 03:15:58;;;;;;;8.63;4.00;;;0.10;99.90;;;;;;1892993;76;21085;-74
2021/01/26 03:18:24;;;;;;;5.83;3.70;;;0.10;99.90;;;;;;1893094;76;21128;-73
2021/01/26 03:20:50;;;;;;;7.10;3.85;;;0.10;99.90;;;;;;1893074;76;21189;-74
2021/01/26 03:23:17;;;;;;;6.03;4.15;;;0.20;99.90;;;;;;1893051;76;21147;-74
2021/01/26 03:25:43;;;;;;;5.35;3.70;;;0.00;99.90;;;;;;1892925;76;21093;-73
2021/01/26 03:28:09;;;;;;;7.42;4.20;;;0.10;99.90;;;;;;1892986;76;21054;-73
2021/01/26 03:30:35;;;;;;;7.90;4.72;;;0.10;99.90;;;;;;1892962;76;21062;-74
2021/01/26 03:33:01;;;;;;;5.70;4.00;;;0.10;99.90;;;;;;1893007;76;21081;-74
2021/01/26 03:35:28;;;;;;;8.10;4.20;;;0.20;99.90;;;;;;1892797;76;21150;-74
2021/01/26 03:37:54;;;;;;;7.62;4.25;;;0.10;99.90;;;;;;1893007;76;21151;-74
2021/01/26 03:40:20;;;;;;;5.78;3.52;;;0.10;99.90;;;;;;1892990;76;21111;-74
2021/01/26 03:42:46;;;;;;;5.42;3.72;;;0.10;99.90;;;;;;1896247;75;21072;-75
2021/01/26 03:45:12;;;;;;;8.43;4.05;;;0.10;99.90;;;;;;1896913;75;21062;-74
2021/01/26 03:47:38;;;;;;;5.42;4.22;;;0.00;99.90;;;;;;1889517;76;21171;-74
2021/01/26 03:50:04;;;;;;;6.50;3.60;;;0.00;99.90;;;;;;1892816;76;21097;-74
2021/01/26 03:52:30;;;;;;;5.55;3.67;;;0.00;99.90;;;;;;1896509;75;21100;-75
2021/01/26 03:54:57;;;;;;;4.47;3.45;;;-0.10;99.90;;;;;;1896733;75;21492;-74
2021/01/26 03:57:23;;;;;;;7.67;4.12;;;0.00;99.90;;;;;;1899277;75;21481;-74
2021/01/26 03:59:49;;;;;;;6.50;4.03;;;0.10;99.90;;;;;;1896371;74;21548;-74
2021/01/26 04:02:15;;;;;;;10.80;4.65;;;0.10;99.90;;;;;;1893002;76;21124;-75
2021/01/26 04:04:41;;;;;;;8.50;4.30;;;0.10;99.90;;;;;;1896305;75;21046;-73
2021/01/26 04:07:07;;;;;;;6.83;3.90;;;0.10;99.90;;;;;;1896079;75;21088;-74
2021/01/26 04:09:33;;;;;;;7.40;4.78;;;0.20;99.90;;;;;;1892952;76;21085;-73
2021/01/26 04:12:00;;;;;;;5.37;3.83;;;0.20;99.90;;;;;;1886194;76;21081;-74
2021/01/26 04:14:26;;;;;;;7.45;4.37;;;0.20;99.90;;;;;;1892907;76;21497;-73
2021/01/26 04:16:52;;;;;;;5.17;3.58;;;0.30;99.90;;;;;;1892932;76;21501;-73
2021/01/26 04:19:18;;;;;;;5.22;3.77;;;0.40;99.90;;;;;;1892823;76;21077;-73
2021/01/26 04:21:45;;;;;;;5.60;3.50;;;0.50;99.90;;;;;;1893063;76;21125;-75
2021/01/26 04:24:11;;;;;;;9.33;4.58;;;0.50;99.90;;;;;;1892850;76;21073;-74
2021/01/26 04:26:37;;;;;;;5.80;4.05;;;0.50;99.90;;;;;;1893149;76;21050;-74
2021/01/26 04:29:03;;;;;;;8.18;3.92;;;0.50;99.90;;;;;;1892765;76;21070;-74
2021/01/26 04:31:29;;;;;;;6.92;3.67;;;0.50;99.90;;;;;;1893143;76;21077;-73
2021/01/26 04:33:55;;;;;;;14.83;3.92;;;0.40;99.90;;;;;;1893017;76;21151;-74
2021/01/26 04:36:21;;;;;;;9.33;4.08;;;0.60;99.90;;;;;;1893126;76;21070;-74
2021/01/26 04:38:47;;;;;;;5.22;3.87;;;0.60;99.90;;;;;;1893153;76;21135;-75
2021/01/26 04:41:13;;;;;;;7.72;3.98;;;0.60;99.90;;;;;;1892830;76;21042;-74
2021/01/26 04:43:40;;;;;;;5.25;3.70;;;0.60;99.90;;;;;;1893024;76;21042;-74
2021/01/26 04:46:06;;;;;;;4.25;3.42;;;0.60;99.90;;;;;;1892774;76;21155;-74
2021/01/26 04:48:32;;;;;;;13.15;4.55;;;0.70;99.90;;;;;;1893021;76;21490;-74
2021/01/26 04:50:58;;;;;;;5.10;3.40;;;0.70;99.90;;;;;;1892975;76;21515;-73
2021/01/26 04:53:24;;;;;;;10.28;3.70;;;0.70;99.90;;;;;;1892926;76;21501;-74
2021/01/26 04:55:50;;;;;;;6.72;3.30;;;0.70;99.90;;;;;;1892896;76;21452;-74
2021/01/26 04:58:16;;;;;;;6.50;3.62;;;0.80;99.90;;;;;;1892886;76;21065;-74
2021/01/26 05:00:42;;;;;;;6.62;4.12;;;0.80;99.90;;;;;;1892881;76;21072;-74
2021/01/26 05:03:09;;;;;;;5.20;3.37;;;0.80;99.90;;;;;;1892933;76;21069;-74
2021/01/26 05:05:35;;;;;;;5.03;3.60;;;0.90;99.90;;;;;;1892876;76;21170;-74
2021/01/26 05:08:01;;;;;;;5.12;3.47;;;1.00;99.90;;;;;;1893130;76;21073;-74
2021/01/26 05:10:27;;;;;;;6.30;3.58;;;1.00;99.90;;;;;;1893053;76;21080;-73
2021/01/26 05:12:53;;;;;;;5.67;3.15;;;1.00;99.90;;;;;;1893158;76;21074;-74
2021/01/26 05:15:19;;;;;;;6.08;3.45;;;1.10;99.90;;;;;;1893049;76;21446;-74
2021/01/26 05:17:47;;;;;;;5.05;3.05;;;1.10;99.90;;;;;;1893017;75;21038;-74
2021/01/26 05:20:13;;;;;;;4.78;3.27;;;1.00;99.90;;;;;;1893044;76;21164;-74
2021/01/26 05:22:39;;;;;;;5.95;2.90;;;1.00;99.90;;;;;;1893042;76;21080;-73
2021/01/26 05:25:05;;;;;;;6.10;2.87;;;1.00;99.90;;;;;;1893055;76;21085;-74
2021/01/26 05:27:31;;;;;;;3.90;2.98;;;1.10;99.90;;;;;;1893013;76;21482;-73
2021/01/26 05:29:58;;;;;;;3.15;2.40;;;1.10;99.90;;;;;;1893020;76;21548;-73
2021/01/26 05:32:24;;;;;;;4.70;3.00;;;1.20;99.90;;;;;;1893134;76;21070;-73
2021/01/26 05:34:50;;;;;;;7.40;3.15;;;1.20;99.90;;;;;;1893004;76;21038;-73
2021/01/26 05:37:16;;;;;;;6.80;3.05;;;1.10;99.90;;;;;;1892995;76;21135;-74
2021/01/26 05:39:42;;;;;;;3.92;2.90;;;1.10;99.90;;;;;;1893047;76;21139;-73
2021/01/26 05:42:08;;;;;;;4.87;3.15;;;1.10;99.90;;;;;;1893008;76;21073;-73
2021/01/26 05:44:34;;;;;;;4.22;2.87;;;1.10;99.90;;;;;;1893138;76;21073;-73
2021/01/26 05:47:00;;;;;;;4.03;3.08;;;1.00;99.90;;;;;;1892967;76;21046;-73
2021/01/26 05:49:27;;;;;;;5.95;3.02;;;1.10;99.90;;;;;;1893136;76;21136;-73
2021/01/26 05:51:53;;;;;;;3.35;3.05;;;1.10;99.90;;;;;;1893077;76;21042;-75
2021/01/26 05:54:19;;;;;;;7.75;3.65;;;1.10;99.90;;;;;;1893029;76;21064;-73
2021/01/26 05:56:45;;;;;;;3.47;2.70;;;1.10;99.90;;;;;;1893022;76;21120;-73
2021/01/26 05:59:11;;;;;;;5.35;3.00;;;1.10;99.90;;;;;;1892960;76;21081;-74
2021/01/26 06:01:37;;;;;;;4.05;2.70;;;1.20;99.90;;;;;;1892904;76;21527;-74
2021/01/26 06:04:03;;;;;;;4.33;2.83;;;1.20;99.90;;;;;;1893126;76;21559;-73
2021/01/26 06:06:29;;;;;;;4.40;2.72;;;1.20;99.90;;;;;;1892980;76;21073;-73
2021/01/26 06:08:55;;;;;;;5.87;3.35;;;1.20;99.90;;;;;;1893074;76;21077;-72
2021/01/26 06:11:22;;;;;;;6.35;2.77;;;1.20;99.90;;;;;;1892814;76;21069;-75
2021/01/26 06:13:48;;;;;;;5.60;3.27;;;1.30;99.90;;;;;;1893121;76;21138;-79
2021/01/26 06:16:14;;;;;;;4.15;2.75;;;1.20;99.90;;;;;;1892901;76;21148;-74
2021/01/26 06:18:40;;;;;;;9.70;2.80;;;1.30;99.90;;;;;;1893045;76;21073;-73
2021/01/26 06:21:06;;;;;;;6.58;2.30;;;1.30;99.90;;;;;;1892975;76;21562;-73
2021/01/26 06:23:33;;;;;;;8.78;2.87;;;1.30;99.90;;;;;;1893096;76;21493;-73
2021/01/26 06:25:59;;;;;;;4.92;2.40;;;1.30;99.90;;;;;;1892850;76;21508;-73
2021/01/26 06:28:25;;;;;;;5.42;2.58;;;1.30;99.90;;;;;;1893050;76;21121;-74
2021/01/26 06:30:51;;;;;;;2.55;2.05;;;1.40;99.90;;;;;;1892854;76;21038;-73
2021/01/26 06:33:17;;;;;;;3.15;1.77;;;1.40;99.90;;;;;;1893020;76;21142;-73
2021/01/26 06:35:43;;;;;;;2.20;2.00;;;1.50;99.90;;;;;;1892917;76;21073;-73
2021/01/26 06:38:09;;;;;;;6.47;2.33;;;1.50;99.90;;;;;;1892934;76;21037;-75
2021/01/26 06:40:35;;;;;;;2.60;1.70;;;1.50;99.90;;;;;;1892982;76;21128;-73
2021/01/26 06:43:02;;;;;;;8.33;2.45;;;1.60;99.90;;;;;;1893026;76;21150;-72
2021/01/26 06:45:28;;;;;;;3.75;1.90;;;1.50;99.90;;;;;;1898979;75;21500;-73
2021/01/26 06:47:54;;;;;;;2.22;1.75;;;1.60;99.90;;;;;;1900366;75;21552;-73
2021/01/26 06:50:20;;;;;;;2.77;1.98;;;1.60;99.90;;;;;;1892853;76;21077;-72
2021/01/26 06:52:46;;;;;;;3.17;2.20;;;1.50;99.90;;;;;;1892996;76;21038;-72
2021/01/26 06:55:12;;;;;;;2.83;2.02;;;1.50;99.90;;;;;;1892741;76;21038;-72
2021/01/26 06:57:38;;;;;;;3.05;1.87;;;1.60;99.90;;;;;;1892902;76;21139;-73
2021/01/26 07:00:04;;;;;;;2.35;1.80;;;1.50;99.90;;;;;;1892758;76;21073;-78
2021/01/26 07:02:30;;;;;;;5.60;2.22;;;1.60;99.90;;;;;;1892891;76;21164;-78
2021/01/26 07:04:58;;;;;;;10.95;2.35;;;1.50;99.90;;;;;;1892574;75;21098;-78
2021/01/26 07:07:26;;;;;;;6.15;2.17;;;1.40;99.90;;;;;;1893009;76;21147;-78
2021/01/26 07:09:52;;;;;;;1.57;1.47;;;1.40;99.90;;;;;;1892788;76;21534;-78
2021/01/26 07:12:18;;;;;;;3.30;1.55;;;1.50;99.90;;;;;;1892909;76;21434;-78
2021/01/26 07:14:44;;;;;;;2.45;1.90;;;1.50;99.90;;;;;;1892926;76;21139;-78
2021/01/26 07:17:10;;;;;;;2.15;1.85;;;1.60;99.90;;;;;;1892894;76;21069;-78
2021/01/26 07:19:37;;;;;;;5.55;2.22;;;1.70;99.90;;;;;;1892908;76;21081;-78
2021/01/26 07:22:03;;;;;;;3.85;2.62;;;1.70;99.90;;;;;;1892910;76;21131;-77
2021/01/26 07:24:29;;;;;;;3.15;1.67;;;1.70;99.90;;;;;;1893080;76;21136;-77
2021/01/26 07:26:55;;;;;;;1.85;1.70;;;1.60;99.90;;;;;;1893000;76;21183;-76
2021/01/26 07:29:21;;;;;;;3.02;1.70;;;1.60;99.90;;;;;;1892746;76;21166;-77
2021/01/26 07:31:47;;;;;;;2.87;1.92;;;1.70;99.90;;;;;;1893144;76;21143;-75
2021/01/26 07:34:13;;;;;;;1.50;1.22;;;1.60;99.90;;;;;;1892884;76;21131;-76
2021/01/26 07:36:40;;;;;;;3.65;1.50;;;1.60;99.90;;;;;;1892992;76;21050;-77
2021/01/26 07:39:06;;;;;;;2.85;2.02;;;1.50;99.90;;;;;;1892944;76;21124;-77
2021/01/26 07:41:32;;;;;;;3.45;2.05;;;1.40;99.90;;;;;;1892939;76;21085;-78
2021/01/26 07:43:58;;;;;;;3.25;1.90;;;1.40;99.90;;;;;;1892955;76;21081;-78
2021/01/26 07:46:24;;;;;;;1.75;1.62;;;1.40;99.90;;;;;;1893006;76;21081;-77
2021/01/26 07:48:50;;;;;;;2.33;1.62;;;1.40;99.90;;;;;;1892978;76;21094;-81
2021/01/26 07:51:16;;;;;;;3.52;2.10;;;1.40;99.90;;;;;;1892969;76;21061;-82
2021/01/26 07:53:43;;;;;;;2.87;1.82;;;1.40;99.90;;;;;;1892919;76;21143;-80
2021/01/26 07:56:09;;;;;;;3.42;2.00;;;1.30;99.90;;;;;;1893093;75;21501;-81
2021/01/26 07:58:35;;;;;;;2.52;1.77;;;1.30;99.90;;;;;;1892885;76;21469;-81
2021/01/26 08:01:02;;;;;;;1.77;1.30;;;1.40;99.90;;;;;;1892855;76;21426;-81
2021/01/26 08:03:28;;;;;;;2.33;1.87;;;1.40;99.90;;;;;;1892818;76;21520;-78
2021/01/26 08:05:54;;;;;;;3.05;1.95;;;1.50;99.90;;;;;;1892916;76;21133;-81
2021/01/26 08:08:20;;;;;;;1.85;1.47;;;1.50;99.90;;;;;;1893067;76;21085;-78
2021/01/26 08:10:47;;;;;;;4.92;2.05;;;1.50;99.90;;;;;;1893098;75;21121;-79
2021/01/26 08:13:13;;;;;;;3.12;2.08;;;1.40;99.90;;;;;;1893177;75;21050;-79
2021/01/26 08:15:40;;;;;;;3.45;1.67;;;1.40;99.90;;;;;;1892832;75;21082;-78
2021/01/26 08:18:06;;;;;;;2.20;1.72;;;1.50;99.90;;;;;;1893063;76;21581;-82
2021/01/26 08:20:32;;;;;;;2.90;1.50;;;1.50;99.90;;;;;;1893038;76;21100;-72
2021/01/26 08:22:58;;;;;;;6.60;2.20;;;1.50;99.90;;;;;;1892815;76;21146;-77
2021/01/26 08:25:24;;;;;;;4.00;2.00;;;1.50;99.90;;;;;;1892940;76;21050;-78
2021/01/26 08:27:51;;;;;;;9.15;2.33;;;1.60;99.90;;;;;;1892897;76;21085;-77
2021/01/26 08:30:17;;;;;;;3.10;1.67;;;1.60;99.90;;;;;;1892909;76;21081;-77
2021/01/26 08:32:43;;;;;;;3.08;1.87;;;1.60;99.90;;;;;;1893179;76;21147;-77
2021/01/26 08:35:09;;;;;;;5.47;2.10;;;1.70;99.90;;;;;;1893092;76;21077;-77
2021/01/26 08:37:35;;;;;;;2.22;1.87;;;1.70;99.90;;;;;;1893145;76;21120;-77
2021/01/26 08:40:01;;;;;;;8.63;1.87;;;1.80;99.90;;;;;;1892753;76;21046;-76
2021/01/26 08:42:28;;;;;;;5.35;2.25;;;1.90;99.90;;;;;;1892776;76;21077;-76
2021/01/26 08:44:54;;;;;;;1.80;1.40;;;2.00;99.90;;;;;;1892723;76;21127;-77
2021/01/26 08:47:20;;;;;;;1.85;1.60;;;2.00;99.90;;;;;;1892585;76;21077;-77
2021/01/26 08:49:46;;;;;;;4.72;1.92;;;2.00;99.90;;;;;;1892479;76;21249;-76
2021/01/26 08:52:12;;;;;;;4.17;1.60;;;2.20;99.90;;;;;;1892502;76;21501;-75
2021/01/26 08:54:38;;;;;;;3.15;1.98;;;2.10;99.90;;;;;;1892527;76;21569;-75
2021/01/26 08:57:04;;;;;;;4.00;1.75;;;2.10;99.90;;;;;;1892471;76;21073;-77
2021/01/26 08:59:30;;;;;;;2.25;1.82;;;2.10;99.90;;;;;;1892472;76;21081;-75
2021/01/26 09:01:57;;;;;;;2.52;1.52;;;2.20;99.90;;;;;;1892504;76;21050;-78
2021/01/26 09:04:23;;;;;;;4.00;1.72;;;2.30;99.90;;;;;;1892722;76;21136;-78
2021/01/26 09:06:49;;;;;;;4.25;1.80;;;2.40;99.90;;;;;;1892436;75;21535;-80
2021/01/26 09:09:15;;;;;;;3.10;2.05;;;2.40;99.90;;;;;;1892608;76;21143;-75
2021/01/26 09:11:41;;;;;;;2.77;1.55;;;2.40;99.90;;;;;;1892475;76;21018;-76
2021/01/26 09:14:07;;;;;;;4.00;1.85;;;2.40;99.90;;;;;;1892528;76;21085;-76
2021/01/26 09:16:33;;;;;;;7.22;1.55;;;2.40;99.90;;;;;;1892666;76;21143;-76
2021/01/26 09:19:00;;;;;;;2.30;1.50;;;2.40;99.90;;;;;;1894418;75;21085;-75
2021/01/26 09:21:26;;;;;;;3.70;1.70;;;2.40;99.90;;;;;;1894274;75;21181;-74
2021/01/26 09:23:52;;;;;;;1.42;1.20;;;2.40;99.90;;;;;;1892693;76;21081;-76
2021/01/26 09:26:18;;;;;;;1.67;1.45;;;2.40;99.90;;;;;;1892705;76;21160;-76
2021/01/26 09:28:44;;;;;;;1.50;1.40;;;2.40;99.90;;;;;;1892557;76;21104;-76
2021/01/26 09:31:10;;;;;;;4.28;1.40;;;2.50;99.90;;;;;;1892722;76;21125;-76
2021/01/26 09:33:36;;;;;;;5.78;1.87;;;2.60;99.90;;;;;;1900319;75;21206;-75
2021/01/26 09:36:02;;;;;;;5.40;1.90;;;2.60;99.90;;;;;;1894812;74;21421;-76
2021/01/26 09:38:28;;;;;;;1.72;1.30;;;2.60;99.90;;;;;;1909423;75;21042;-76
2021/01/26 09:40:55;;;;;;;1.98;1.20;;;2.60;99.90;;;;;;1893469;76;21087;-75
2021/01/26 09:43:21;;;;;;;4.53;1.55;;;2.60;99.90;;;;;;1894047;75;21107;-75
2021/01/26 09:45:47;;;;;;;3.00;1.30;;;2.70;99.90;;;;;;1893259;76;21069;-77
2021/01/26 09:48:14;;;;;;;3.98;1.30;;;2.80;99.90;;;;;;1892338;76;21084;-85
2021/01/26 09:50:40;;;;;;;10.45;1.80;;;3.10;99.90;;;;;;1892541;76;21088;-76
2021/01/26 09:53:06;;;;;;;1.40;1.30;;;3.20;99.90;;;;;;1892445;76;21117;-76
2021/01/26 09:55:32;;;;;;;1.65;1.55;;;3.20;99.90;;;;;;1892530;76;21066;-76
2021/01/26 09:57:59;;;;;;;1.35;0.90;;;3.20;99.90;;;;;;1892256;76;21077;-76
2021/01/26 10:00:25;;;;;;;2.10;1.07;;;3.00;99.90;;;;;;1892527;76;21081;-75
2021/01/26 10:02:52;;;;;;;3.58;1.35;;;3.10;99.90;;;;;;1892444;76;21497;-74
2021/01/26 10:05:18;;;;;;;2.50;1.20;;;3.00;99.90;;;;;;1892527;76;21485;-75
2021/01/26 10:07:45;;;;;;;1.32;1.07;;;2.90;99.90;;;;;;1892668;76;21407;-75
2021/01/26 10:10:11;;;;;;;1.65;1.12;;;3.00;99.90;;;;;;1892490;76;21073;-74
2021/01/26 10:12:37;;;;;;;1.92;1.27;;;3.00;99.90;;;;;;1892481;76;21077;-74
2021/01/26 10:15:03;;;;;;;2.85;1.17;;;3.00;99.90;;;;;;1892429;76;21073;-74
2021/01/26 10:17:29;;;;;;;3.25;1.20;;;2.90;99.90;;;;;;1892463;76;21078;-75
2021/01/26 10:19:55;;;;;;;1.20;0.93;;;2.90;99.90;;;;;;1892460;76;21220;-73
2021/01/26 10:22:21;;;;;;;2.70;1.02;;;2.90;99.90;;;;;;1892426;76;21085;-74
2021/01/26 10:24:49;;;;;;;1.20;1.10;;;2.90;99.90;;;;;;1892344;76;21151;-76
2021/01/26 10:27:15;;;;;;;2.37;0.85;;;3.00;99.90;;;;;;1892377;76;21085;-76
2021/01/26 10:29:41;;;;;;;2.10;1.00;;;3.20;99.90;;;;;;1892512;76;21200;-76
2021/01/26 10:32:07;;;;;;;0.90;0.80;;;3.30;99.90;;;;;;1892403;76;21085;-76
2021/01/26 10:34:36;;;;;;;1.27;1.05;;;3.50;99.90;;;;;;1892541;76;21478;-75
2021/01/26 10:37:02;;;;;;;1.00;0.88;;;3.50;99.90;;;;;;1892601;76;21046;-76
2021/01/26 10:39:28;;;;;;;2.37;1.40;;;3.40;99.90;;;;;;1892372;76;21080;-77
2021/01/26 10:41:54;;;;;;;2.67;0.98;;;3.50;99.90;;;;;;1892396;76;21465;-76
2021/01/26 10:44:21;;;;;;;2.12;1.10;;;3.60;99.90;;;;;;1892556;76;21485;-76
2021/01/26 10:46:47;;;;;;;1.15;0.70;;;3.70;99.90;;;;;;1892413;76;21552;-76
2021/01/26 10:49:13;;;;;;;2.17;1.07;;;3.70;99.90;;;;;;1892456;76;21049;-76
2021/01/26 10:51:39;;;;;;;3.25;1.20;;;3.70;99.90;;;;;;1892599;76;21078;-76
2021/01/26 10:54:05;;;;;;;1.92;1.17;;;3.60;99.90;;;;;;1892665;76;21152;-75
2021/01/26 10:56:32;;;;;;;2.35;1.17;;;3.70;99.90;;;;;;1892752;76;21485;-75
2021/01/26 10:58:58;;;;;;;3.98;1.10;;;3.70;99.90;;;;;;1892451;76;21046;-75
2021/01/26 11:01:24;;;;;;;5.65;1.72;;;3.70;99.90;;;;;;1892561;76;21069;-75
2021/01/26 11:03:50;;;;;;;1.15;0.80;;;3.40;99.90;;;;;;1892476;76;21077;-75
2021/01/26 11:06:17;;;;;;;4.53;1.50;;;3.40;99.90;;;;;;1892556;76;21198;-74
2021/01/26 11:08:43;;;;;;;1.82;1.00;;;3.30;99.90;;;;;;1892656;76;21186;-77
2021/01/26 11:11:09;;;;;;;1.17;0.68;;;3.30;99.90;;;;;;1893109;76;21154;-75
2021/01/26 11:13:35;;;;;;;1.67;1.00;;;3.30;99.90;;;;;;1892730;76;21186;-74
2021/01/26 11:16:01;;;;;;;1.85;0.95;;;3.30;99.90;;;;;;1893984;76;21178;-70
2021/01/26 11:18:28;;;;;;;1.05;0.72;;;3.20;99.90;;;;;;1895601;76;21058;-71
2021/01/26 11:20:54;;;;;;;1.77;0.70;;;3.30;99.90;;;;;;1895793;76;21082;-75
2021/01/26 11:23:20;;;;;;;1.15;0.80;;;3.30;99.90;;;;;;1873783;76;21127;-74
2021/01/26 11:25:46;;;;;;;1.95;1.35;;;3.30;99.90;;;;;;1893076;76;21045;-75
2021/01/26 11:28:13;;;;;;;1.77;0.95;;;3.30;99.90;;;;;;1892305;76;21060;-75
2021/01/26 11:30:39;;;;;;;1.15;0.98;;;3.30;99.90;;;;;;1892272;76;21081;-76
2021/01/26 11:33:05;;;;;;;1.65;0.93;;;3.30;99.90;;;;;;1892431;76;21244;-75
2021/01/26 11:35:32;;;;;;;7.87;0.93;;;3.30;99.90;;;;;;1880589;76;21093;-76
2021/01/26 11:37:58;;;;;;;1.45;0.90;;;3.20;99.90;;;;;;1894278;74;21142;-76
2021/01/26 11:40:24;;;;;;;1.70;1.27;;;3.30;99.90;;;;;;1894733;75;21135;-75
2021/01/26 11:42:50;;;;;;;3.02;0.70;;;3.30;99.90;;;;;;1883908;76;21085;-75
2021/01/26 11:45:16;;;;;;;1.85;0.93;;;3.30;99.90;;;;;;1878665;76;21124;-75
2021/01/26 11:47:42;;;;;;;13.03;1.80;;;3.40;99.90;;;;;;1889333;76;21225;-74
2021/01/26 11:50:09;;;;;;;1.02;0.88;;;3.30;99.90;;;;;;1894792;75;21046;-75
2021/01/26 11:52:35;;;;;;;1.07;0.90;;;3.40;99.90;;;;;;1893705;75;21163;-73
2021/01/26 11:55:01;;;;;;;2.87;0.90;;;3.60;99.90;;;;;;1896184;75;21158;-76
2021/01/26 11:57:27;;;;;;;3.30;0.70;;;3.60;99.90;;;;;;1892676;76;21214;-74
2021/01/26 11:59:53;;;;;;;1.52;1.12;;;3.70;99.90;;;;;;1889368;76;21481;-75
2021/01/26 12:02:19;;;;;;;1.37;0.85;;;3.80;99.90;;;;;;1889554;76;21596;-75
2021/01/26 12:04:45;;;;;;;3.90;0.95;;;4.00;99.90;;;;;;1887615;76;21521;-77
2021/01/26 12:07:11;;;;;;;1.20;1.02;;;4.00;99.90;;;;;;1892737;76;21046;-89
2021/01/26 12:09:37;;;;;;;4.15;1.00;;;4.00;99.90;;;;;;1892573;76;21081;-76
2021/01/26 12:12:04;;;;;;;0.85;0.75;;;4.00;99.90;;;;;;1892577;76;21138;-81
2021/01/26 12:14:30;;;;;;;0.50;0.50;;;4.20;99.90;;;;;;1892362;76;21085;-75
2021/01/26 12:16:56;;;;;;;2.58;1.15;;;4.60;99.90;;;;;;1892600;76;21073;-72
2021/01/26 12:19:22;;;;;;;4.35;1.25;;;4.60;99.90;;;;;;1892525;76;21049;-74
2021/01/26 12:21:48;;;;;;;2.60;0.90;;;5.10;99.90;;;;;;1892615;75;21494;-75
2021/01/26 12:24:14;;;;;;;2.10;1.00;;;5.50;99.90;;;;;;1892455;76;21504;-74
2021/01/26 12:26:40;;;;;;;6.12;0.90;;;5.70;99.90;;;;;;1892479;76;21461;-75
2021/01/26 12:29:07;;;;;;;11.12;0.93;;;5.00;99.90;;;;;;1892588;76;21097;-74
2021/01/26 12:31:33;;;;;;;1.80;1.00;;;4.90;99.90;;;;;;1892301;76;21147;-75
2021/01/26 12:33:59;;;;;;;0.85;0.70;;;4.80;99.90;;;;;;1892543;76;21158;-74
2021/01/26 12:36:25;;;;;;;1.27;0.90;;;4.90;99.90;;;;;;1892474;76;21155;-75
2021/01/26 12:38:51;;;;;;;2.08;0.85;;;4.70;99.90;;;;;;1892564;76;21143;-75
2021/01/26 12:41:17;;;;;;;1.67;0.80;;;4.40;99.90;;;;;;1892444;76;21178;-75
2021/01/26 12:43:43;;;;;;;2.12;1.37;;;4.40;99.90;;;;;;1892492;76;21190;-76
2021/01/26 12:46:10;;;;;;;6.70;0.70;;;4.50;99.90;;;;;;1892541;76;21498;-75
2021/01/26 12:48:36;;;;;;;1.57;0.60;;;4.60;99.90;;;;;;1892400;76;21497;-75